sensor_id;sensor_type;location;lat;lon;timestamp;pressure;altitude;pressure_sealevel;temperature;humidity
18504;BME280;9381;54.244;10.074;2024-03-08T00:03:33;102069.84;;;4.22;98.26
18504;BME280;9381;54.244;10.074;2024-03-08T00:08:34;102062.97;;;4.10;98.28
18504;BME280;9381;54.244;10.074;2024-03-08T00:13:34;102054.09;;;4.09;99.45
18504;BME280;9381;54.244;10.074;2024-03-08T00:18:35;102059.44;;;4.09;98.31
18504;BME280;9381;54.244;10.074;2024-03-08T00:23:35;102063.69;;;4.02;98.34
18504;BME280;9381;54.244;10.074;2024-03-08T00:28:36;102059.16;;;4.03;99.15
18504;BME280;9381;54.244;10.074;2024-03-08T00:33:37;102058.19;;;4.04;99.93
18504;BME280;9381;54.244;10.074;2024-03-08T00:38:37;102053.97;;;3.92;100.00
18504;BME280;9381;54.244;10.074;2024-03-08T00:43:37;102047.34;;;3.96;99.79
18504;BME280;9381;54.244;10.074;2024-03-08T00:48:38;102043.25;;;3.92;99.45
18504;BME280;9381;54.244;10.074;2024-03-08T00:53:38;102040.31;;;3.76;100.00
18504;BME280;9381;54.244;10.074;2024-03-08T00:58:38;102034.09;;;3.85;100.00
18504;BME280;9381;54.244;10.074;2024-03-08T01:03:39;102031.72;;;3.82;100.00
18504;BME280;9381;54.244;10.074;2024-03-08T01:08:40;102021.16;;;3.80;100.00
18504;BME280;9381;54.244;10.074;2024-03-08T01:13:42;102019.50;;;3.70;100.00
18504;BME280;9381;54.244;10.074;2024-03-08T01:18:43;102013.00;;;3.63;100.00
18504;BME280;9381;54.244;10.074;2024-03-08T01:23:44;102012.97;;;3.72;100.00
18504;BME280;9381;54.244;10.074;2024-03-08T01:28:44;102003.13;;;3.73;100.00
18504;BME280;9381;54.244;10.074;2024-03-08T01:33:44;101995.50;;;3.78;100.00
18504;BME280;9381;54.244;10.074;2024-03-08T01:38:45;101988.34;;;3.69;100.00
18504;BME280;9381;54.244;10.074;2024-03-08T01:43:45;101987.66;;;3.67;100.00
18504;BME280;9381;54.244;10.074;2024-03-08T01:48:46;101978.66;;;3.58;100.00
18504;BME280;9381;54.244;10.074;2024-03-08T01:53:48;101970.06;;;3.55;100.00
18504;BME280;9381;54.244;10.074;2024-03-08T01:58:49;101970.75;;;3.57;100.00
18504;BME280;9381;54.244;10.074;2024-03-08T02:03:49;101960.91;;;3.48;100.00
18504;BME280;9381;54.244;10.074;2024-03-08T02:08:49;101961.19;;;3.54;100.00
18504;BME280;9381;54.244;10.074;2024-03-08T02:13:50;101954.72;;;3.57;100.00
18504;BME280;9381;54.244;10.074;2024-03-08T02:18:50;101943.72;;;3.60;100.00
18504;BME280;9381;54.244;10.074;2024-03-08T02:23:50;101935.97;;;3.66;100.00
18504;BME280;9381;54.244;10.074;2024-03-08T02:28:52;101935.69;;;3.60;100.00
18504;BME280;9381;54.244;10.074;2024-03-08T02:33:52;101925.41;;;3.55;100.00
18504;BME280;9381;54.244;10.074;2024-03-08T02:38:52;101937.53;;;3.50;100.00
18504;BME280;9381;54.244;10.074;2024-03-08T02:43:55;101935.56;;;3.42;100.00
18504;BME280;9381;54.244;10.074;2024-03-08T02:48:56;101926.13;;;3.48;100.00
18504;BME280;9381;54.244;10.074;2024-03-08T02:53:56;101912.19;;;3.54;100.00
18504;BME280;9381;54.244;10.074;2024-03-08T02:58:57;101915.88;;;3.53;100.00
18504;BME280;9381;54.244;10.074;2024-03-08T03:03:57;101919.53;;;3.52;100.00
18504;BME280;9381;54.244;10.074;2024-03-08T03:08:58;101916.09;;;3.69;100.00
18504;BME280;9381;54.244;10.074;2024-03-08T03:13:58;101915.53;;;3.75;100.00
18504;BME280;9381;54.244;10.074;2024-03-08T03:18:58;101910.44;;;3.81;100.00
18504;BME280;9381;54.244;10.074;2024-03-08T03:24:01;101910.31;;;3.83;100.00
18504;BME280;9381;54.244;10.074;2024-03-08T03:29:02;101905.34;;;3.88;100.00
18504;BME280;9381;54.244;10.074;2024-03-08T03:34:03;101908.19;;;3.86;100.00
18504;BME280;9381;54.244;10.074;2024-03-08T03:39:04;101900.41;;;3.93;100.00
18504;BME280;9381;54.244;10.074;2024-03-08T03:44:16;101896.00;;;4.01;100.00
18504;BME280;9381;54.244;10.074;2024-03-08T03:49:16;101891.81;;;3.99;100.00
18504;BME280;9381;54.244;10.074;2024-03-08T03:54:17;101894.19;;;4.02;100.00
18504;BME280;9381;54.244;10.074;2024-03-08T03:59:17;101892.31;;;4.12;100.00
18504;BME280;9381;54.244;10.074;2024-03-08T04:04:18;101886.97;;;4.12;100.00
18504;BME280;9381;54.244;10.074;2024-03-08T04:09:18;101889.25;;;4.07;100.00
18504;BME280;9381;54.244;10.074;2024-03-08T04:14:23;101884.69;;;4.17;100.00
18504;BME280;9381;54.244;10.074;2024-03-08T04:19:23;101886.22;;;4.19;100.00
18504;BME280;9381;54.244;10.074;2024-03-08T04:24:24;101881.03;;;4.18;100.00
18504;BME280;9381;54.244;10.074;2024-03-08T04:29:25;101887.31;;;4.26;100.00
18504;BME280;9381;54.244;10.074;2024-03-08T04:34:27;101881.84;;;4.18;100.00
18504;BME280;9381;54.244;10.074;2024-03-08T04:39:28;101881.72;;;4.20;100.00
18504;BME280;9381;54.244;10.074;2024-03-08T04:44:30;101875.34;;;4.21;100.00
18504;BME280;9381;54.244;10.074;2024-03-08T04:49:34;101881.13;;;4.26;100.00
18504;BME280;9381;54.244;10.074;2024-03-08T04:54:34;101878.00;;;4.30;100.00
18504;BME280;9381;54.244;10.074;2024-03-08T04:59:35;101873.69;;;4.20;100.00
18504;BME280;9381;54.244;10.074;2024-03-08T05:04:36;101862.53;;;4.24;100.00
18504;BME280;9381;54.244;10.074;2024-03-08T05:09:36;101860.78;;;4.33;100.00
18504;BME280;9381;54.244;10.074;2024-03-08T05:14:37;101874.56;;;4.38;100.00
18504;BME280;9381;54.244;10.074;2024-03-08T05:19:38;101861.50;;;4.35;100.00
18504;BME280;9381;54.244;10.074;2024-03-08T05:24:38;101865.97;;;4.44;100.00
18504;BME280;9381;54.244;10.074;2024-03-08T05:29:38;101856.59;;;4.48;100.00
18504;BME280;9381;54.244;10.074;2024-03-08T05:34:39;101857.28;;;4.50;100.00
18504;BME280;9381;54.244;10.074;2024-03-08T05:39:39;101859.97;;;4.50;100.00
18504;BME280;9381;54.244;10.074;2024-03-08T05:44:41;101851.13;;;4.49;100.00
18504;BME280;9381;54.244;10.074;2024-03-08T05:49:41;101851.56;;;4.45;100.00
18504;BME280;9381;54.244;10.074;2024-03-08T05:54:44;101848.88;;;4.45;100.00
18504;BME280;9381;54.244;10.074;2024-03-08T05:59:45;101847.03;;;4.45;100.00
18504;BME280;9381;54.244;10.074;2024-03-08T06:04:46;101838.06;;;4.37;100.00
18504;BME280;9381;54.244;10.074;2024-03-08T06:09:47;101846.75;;;4.48;100.00
18504;BME280;9381;54.244;10.074;2024-03-08T06:14:48;101841.22;;;4.50;100.00
18504;BME280;9381;54.244;10.074;2024-03-08T06:19:49;101839.16;;;4.44;100.00
18504;BME280;9381;54.244;10.074;2024-03-08T06:24:50;101843.91;;;4.50;100.00
18504;BME280;9381;54.244;10.074;2024-03-08T06:29:51;101840.22;;;4.51;100.00
18504;BME280;9381;54.244;10.074;2024-03-08T06:34:51;101844.75;;;4.50;100.00
18504;BME280;9381;54.244;10.074;2024-03-08T06:39:52;101844.31;;;4.55;100.00
18504;BME280;9381;54.244;10.074;2024-03-08T06:44:54;101843.63;;;4.53;100.00
18504;BME280;9381;54.244;10.074;2024-03-08T06:50:00;101845.41;;;4.62;100.00
18504;BME280;9381;54.244;10.074;2024-03-08T06:55:01;101849.13;;;4.69;100.00
18504;BME280;9381;54.244;10.074;2024-03-08T07:00:08;101844.53;;;4.79;100.00
18504;BME280;9381;54.244;10.074;2024-03-08T07:05:18;101850.69;;;4.89;100.00
18504;BME280;9381;54.244;10.074;2024-03-08T07:10:18;101836.03;;;4.83;100.00
18504;BME280;9381;54.244;10.074;2024-03-08T07:15:19;101840.66;;;4.91;100.00
18504;BME280;9381;54.244;10.074;2024-03-08T07:20:20;101837.88;;;5.00;100.00
18504;BME280;9381;54.244;10.074;2024-03-08T07:25:20;101829.91;;;5.08;100.00
18504;BME280;9381;54.244;10.074;2024-03-08T07:30:23;101838.03;;;5.16;100.00
18504;BME280;9381;54.244;10.074;2024-03-08T07:35:42;101832.13;;;5.30;100.00
18504;BME280;9381;54.244;10.074;2024-03-08T07:40:44;101835.00;;;5.37;100.00
18504;BME280;9381;54.244;10.074;2024-03-08T07:45:44;101829.00;;;5.43;100.00
18504;BME280;9381;54.244;10.074;2024-03-08T07:50:44;101822.59;;;5.36;100.00
18504;BME280;9381;54.244;10.074;2024-03-08T07:55:45;101831.41;;;5.46;100.00
18504;BME280;9381;54.244;10.074;2024-03-08T08:00:45;101822.06;;;5.57;100.00
18504;BME280;9381;54.244;10.074;2024-03-08T08:05:46;101822.44;;;5.63;100.00
18504;BME280;9381;54.244;10.074;2024-03-08T08:10:47;101822.72;;;5.77;100.00
18504;BME280;9381;54.244;10.074;2024-03-08T08:15:47;101825.09;;;5.80;100.00
18504;BME280;9381;54.244;10.074;2024-03-08T08:20:47;101818.66;;;6.06;100.00
18504;BME280;9381;54.244;10.074;2024-03-08T08:25:48;101803.28;;;6.24;100.00
18504;BME280;9381;54.244;10.074;2024-03-08T08:30:50;101816.44;;;6.27;99.44
18504;BME280;9381;54.244;10.074;2024-03-08T08:35:50;101821.19;;;6.49;99.26
18504;BME280;9381;54.244;10.074;2024-03-08T08:40:53;101821.56;;;6.62;97.94
18504;BME280;9381;54.244;10.074;2024-03-08T08:45:54;101817.50;;;6.58;96.16
18504;BME280;9381;54.244;10.074;2024-03-08T08:50:55;101807.16;;;6.95;95.61
18504;BME280;9381;54.244;10.074;2024-03-08T08:55:55;101794.03;;;7.16;95.45
18504;BME280;9381;54.244;10.074;2024-03-08T09:00:56;101780.91;;;7.37;95.18
18504;BME280;9381;54.244;10.074;2024-03-08T09:05:56;101777.50;;;7.51;93.69
18504;BME280;9381;54.244;10.074;2024-03-08T09:10:57;101777.69;;;7.58;92.17
18504;BME280;9381;54.244;10.074;2024-03-08T09:16:00;101773.72;;;7.84;90.76
18504;BME280;9381;54.244;10.074;2024-03-08T09:21:00;101765.56;;;8.00;89.22
18504;BME280;9381;54.244;10.074;2024-03-08T09:26:00;101772.41;;;8.11;86.94
18504;BME280;9381;54.244;10.074;2024-03-08T09:31:01;101762.03;;;8.38;86.58
18504;BME280;9381;54.244;10.074;2024-03-08T09:36:02;101759.06;;;8.25;84.55
18504;BME280;9381;54.244;10.074;2024-03-08T09:41:04;101756.06;;;8.51;84.54
18504;BME280;9381;54.244;10.074;2024-03-08T09:46:04;101748.69;;;8.67;82.60
18504;BME280;9381;54.244;10.074;2024-03-08T09:51:07;101735.44;;;8.80;82.02
18504;BME280;9381;54.244;10.074;2024-03-08T09:56:08;101718.91;;;9.34;81.47
18504;BME280;9381;54.244;10.074;2024-03-08T10:01:08;101717.91;;;9.35;80.22
18504;BME280;9381;54.244;10.074;2024-03-08T10:06:08;101709.97;;;9.92;76.72
18504;BME280;9381;54.244;10.074;2024-03-08T10:11:10;101694.28;;;11.00;73.77
18504;BME280;9381;54.244;10.074;2024-03-08T10:16:12;101696.78;;;11.57;65.42
18504;BME280;9381;54.244;10.074;2024-03-08T10:21:12;101677.00;;;12.95;67.05
18504;BME280;9381;54.244;10.074;2024-03-08T10:26:16;101672.19;;;13.17;60.07
18504;BME280;9381;54.244;10.074;2024-03-08T10:31:19;101675.91;;;13.42;59.23
18504;BME280;9381;54.244;10.074;2024-03-08T10:36:19;101670.31;;;13.87;58.10
18504;BME280;9381;54.244;10.074;2024-03-08T10:41:22;101662.56;;;13.91;56.05
18504;BME280;9381;54.244;10.074;2024-03-08T10:46:31;101655.19;;;14.48;56.64
18504;BME280;9381;54.244;10.074;2024-03-08T10:51:35;101653.13;;;15.17;54.33
18504;BME280;9381;54.244;10.074;2024-03-08T10:56:36;101648.69;;;14.98;53.88
18504;BME280;9381;54.244;10.074;2024-03-08T11:01:36;101634.63;;;14.76;53.86
18504;BME280;9381;54.244;10.074;2024-03-08T11:11:37;101619.28;;;15.49;51.68
18504;BME280;9381;54.244;10.074;2024-03-08T11:16:38;101619.59;;;14.92;52.93
18504;BME280;9381;54.244;10.074;2024-03-08T11:21:43;101611.31;;;15.65;51.19
18504;BME280;9381;54.244;10.074;2024-03-08T11:26:45;101605.28;;;15.03;52.78
18504;BME280;9381;54.244;10.074;2024-03-08T11:31:48;101591.59;;;16.11;52.31
18504;BME280;9381;54.244;10.074;2024-03-08T11:36:48;101593.66;;;16.27;48.90
18504;BME280;9381;54.244;10.074;2024-03-08T11:41:48;101582.56;;;15.27;51.09
18504;BME280;9381;54.244;10.074;2024-03-08T11:46:49;101572.34;;;16.35;51.21
18504;BME280;9381;54.244;10.074;2024-03-08T11:51:53;101559.25;;;16.67;49.92
18504;BME280;9381;54.244;10.074;2024-03-08T11:56:57;101562.91;;;15.25;48.49
18504;BME280;9381;54.244;10.074;2024-03-08T12:02:04;101555.03;;;15.17;50.95
18504;BME280;9381;54.244;10.074;2024-03-08T12:07:04;101542.94;;;16.08;49.07
18504;BME280;9381;54.244;10.074;2024-03-08T12:12:09;101539.72;;;15.99;48.32
18504;BME280;9381;54.244;10.074;2024-03-08T12:17:11;101534.75;;;15.67;48.76
18504;BME280;9381;54.244;10.074;2024-03-08T12:22:14;101530.00;;;15.44;48.82
18504;BME280;9381;54.244;10.074;2024-03-08T12:27:21;101521.78;;;15.62;49.94
18504;BME280;9381;54.244;10.074;2024-03-08T12:32:21;101507.53;;;15.90;48.00
18504;BME280;9381;54.244;10.074;2024-03-08T12:37:23;101497.94;;;14.19;50.24
18504;BME280;9381;54.244;10.074;2024-03-08T12:42:24;101500.38;;;15.30;49.25
18504;BME280;9381;54.244;10.074;2024-03-08T12:47:24;101487.81;;;14.93;49.34
18504;BME280;9381;54.244;10.074;2024-03-08T12:52:24;101486.47;;;15.02;48.10
18504;BME280;9381;54.244;10.074;2024-03-08T12:57:25;101478.56;;;13.41;49.53
18504;BME280;9381;54.244;10.074;2024-03-08T13:02:28;101464.19;;;14.27;49.35
18504;BME280;9381;54.244;10.074;2024-03-08T13:07:28;101458.91;;;14.56;49.52
18504;BME280;9381;54.244;10.074;2024-03-08T13:12:29;101457.38;;;15.14;48.00
18504;BME280;9381;54.244;10.074;2024-03-08T13:17:29;101449.25;;;13.49;50.44
18504;BME280;9381;54.244;10.074;2024-03-08T13:22:29;101444.56;;;12.68;51.32
18504;BME280;9381;54.244;10.074;2024-03-08T13:27:30;101442.84;;;12.80;51.35
18504;BME280;9381;54.244;10.074;2024-03-08T13:32:30;101433.13;;;13.17;51.39
18504;BME280;9381;54.244;10.074;2024-03-08T13:37:31;101440.41;;;12.59;51.40
18504;BME280;9381;54.244;10.074;2024-03-08T13:42:33;101423.34;;;12.39;52.35
18504;BME280;9381;54.244;10.074;2024-03-08T13:47:33;101414.00;;;12.86;58.45
18504;BME280;9381;54.244;10.074;2024-03-08T13:52:34;101405.06;;;13.29;53.04
18504;BME280;9381;54.244;10.074;2024-03-08T13:57:34;101403.16;;;12.86;51.47
18504;BME280;9381;54.244;10.074;2024-03-08T14:02:34;101388.84;;;13.16;57.53
18504;BME280;9381;54.244;10.074;2024-03-08T14:07:35;101372.63;;;13.03;58.52
18504;BME280;9381;54.244;10.074;2024-03-08T14:12:36;101371.03;;;12.76;59.55
18504;BME280;9381;54.244;10.074;2024-03-08T14:17:38;101366.59;;;12.31;62.00
18504;BME280;9381;54.244;10.074;2024-03-08T14:22:38;101361.22;;;12.05;62.07
18504;BME280;9381;54.244;10.074;2024-03-08T14:27:39;101349.75;;;11.52;64.24
18504;BME280;9381;54.244;10.074;2024-03-08T14:32:40;101343.69;;;11.24;65.56
18504;BME280;9381;54.244;10.074;2024-03-08T14:37:41;101344.03;;;11.01;67.10
18504;BME280;9381;54.244;10.074;2024-03-08T14:42:43;101345.00;;;10.74;68.96
18504;BME280;9381;54.244;10.074;2024-03-08T14:47:48;101338.06;;;10.59;70.21
18504;BME280;9381;54.244;10.074;2024-03-08T14:52:52;101330.03;;;10.31;71.50
18504;BME280;9381;54.244;10.074;2024-03-08T14:57:52;101328.34;;;10.24;72.01
18504;BME280;9381;54.244;10.074;2024-03-08T15:02:54;101322.00;;;10.04;72.86
18504;BME280;9381;54.244;10.074;2024-03-08T15:07:54;101314.41;;;9.93;74.02
18504;BME280;9381;54.244;10.074;2024-03-08T15:12:55;101306.59;;;9.77;75.63
18504;BME280;9381;54.244;10.074;2024-03-08T15:17:55;101309.03;;;9.72;75.96
18504;BME280;9381;54.244;10.074;2024-03-08T15:22:58;101305.84;;;9.62;75.79
18504;BME280;9381;54.244;10.074;2024-03-08T15:27:58;101297.03;;;9.47;75.40
18504;BME280;9381;54.244;10.074;2024-03-08T15:32:59;101290.56;;;9.20;76.65
18504;BME280;9381;54.244;10.074;2024-03-08T15:38:04;101288.84;;;9.13;77.43
18504;BME280;9381;54.244;10.074;2024-03-08T15:43:04;101281.28;;;9.02;78.06
18504;BME280;9381;54.244;10.074;2024-03-08T15:48:05;101282.81;;;8.90;78.48
18504;BME280;9381;54.244;10.074;2024-03-08T15:53:06;101281.41;;;8.73;79.84
18504;BME280;9381;54.244;10.074;2024-03-08T15:58:06;101272.44;;;8.52;80.67
18504;BME280;9381;54.244;10.074;2024-03-08T16:03:07;101276.19;;;8.36;81.67
18504;BME280;9381;54.244;10.074;2024-03-08T16:08:12;101269.88;;;8.29;81.89
18504;BME280;9381;54.244;10.074;2024-03-08T16:13:15;101280.91;;;8.34;82.40
18504;BME280;9381;54.244;10.074;2024-03-08T16:18:17;101266.09;;;8.24;83.04
18504;BME280;9381;54.244;10.074;2024-03-08T16:23:22;101254.09;;;7.97;84.63
18504;BME280;9381;54.244;10.074;2024-03-08T16:28:23;101247.78;;;8.05;84.80
18504;BME280;9381;54.244;10.074;2024-03-08T16:33:25;101247.91;;;7.82;86.63
18504;BME280;9381;54.244;10.074;2024-03-08T16:38:26;101246.78;;;7.62;87.45
18504;BME280;9381;54.244;10.074;2024-03-08T16:43:26;101240.94;;;7.59;88.08
18504;BME280;9381;54.244;10.074;2024-03-08T16:48:27;101247.91;;;7.53;89.06
18504;BME280;9381;54.244;10.074;2024-03-08T16:53:30;101236.66;;;7.35;89.81
18504;BME280;9381;54.244;10.074;2024-03-08T16:58:31;101237.00;;;7.32;90.02
18504;BME280;9381;54.244;10.074;2024-03-08T17:03:33;101232.25;;;7.34;89.78
18504;BME280;9381;54.244;10.074;2024-03-08T17:08:34;101228.50;;;7.06;91.40
18504;BME280;9381;54.244;10.074;2024-03-08T17:13:35;101222.75;;;7.09;91.77
18504;BME280;9381;54.244;10.074;2024-03-08T17:18:36;101223.09;;;7.06;92.34
18504;BME280;9381;54.244;10.074;2024-03-08T17:23:36;101214.78;;;7.01;91.61
18504;BME280;9381;54.244;10.074;2024-03-08T17:28:37;101219.91;;;6.88;92.71
18504;BME280;9381;54.244;10.074;2024-03-08T17:33:41;101216.28;;;6.81;92.64
18504;BME280;9381;54.244;10.074;2024-03-08T17:38:42;101211.31;;;6.70;92.63
18504;BME280;9381;54.244;10.074;2024-03-08T17:43:47;101207.09;;;6.53;93.26
18504;BME280;9381;54.244;10.074;2024-03-08T17:48:47;101216.94;;;6.38;94.18
18504;BME280;9381;54.244;10.074;2024-03-08T17:53:48;101211.25;;;6.33;94.87
18504;BME280;9381;54.244;10.074;2024-03-08T17:58:51;101216.34;;;6.28;94.81
18504;BME280;9381;54.244;10.074;2024-03-08T18:03:51;101213.31;;;6.23;95.87
18504;BME280;9381;54.244;10.074;2024-03-08T18:08:53;101201.22;;;6.27;96.43
18504;BME280;9381;54.244;10.074;2024-03-08T18:13:53;101211.06;;;6.12;96.89
18504;BME280;9381;54.244;10.074;2024-03-08T18:18:53;101200.31;;;6.12;97.37
18504;BME280;9381;54.244;10.074;2024-03-08T18:23:54;101199.63;;;6.18;97.73
18504;BME280;9381;54.244;10.074;2024-03-08T18:28:55;101195.91;;;6.19;98.13
18504;BME280;9381;54.244;10.074;2024-03-08T18:33:56;101187.25;;;6.09;98.38
18504;BME280;9381;54.244;10.074;2024-03-08T18:39:00;101181.56;;;6.04;99.40
18504;BME280;9381;54.244;10.074;2024-03-08T18:44:00;101186.22;;;6.10;98.97
18504;BME280;9381;54.244;10.074;2024-03-08T18:49:02;101186.09;;;6.04;99.84
18504;BME280;9381;54.244;10.074;2024-03-08T18:54:02;101180.56;;;5.97;100.00
18504;BME280;9381;54.244;10.074;2024-03-08T18:59:04;101172.16;;;6.08;100.00
18504;BME280;9381;54.244;10.074;2024-03-08T19:04:09;101164.09;;;6.08;100.00
18504;BME280;9381;54.244;10.074;2024-03-08T19:09:09;101161.63;;;5.99;100.00
18504;BME280;9381;54.244;10.074;2024-03-08T19:14:14;101148.72;;;5.94;100.00
18504;BME280;9381;54.244;10.074;2024-03-08T19:19:18;101150.22;;;5.97;100.00
18504;BME280;9381;54.244;10.074;2024-03-08T19:24:21;101144.31;;;6.01;100.00
18504;BME280;9381;54.244;10.074;2024-03-08T19:29:21;101144.31;;;6.01;100.00
18504;BME280;9381;54.244;10.074;2024-03-08T19:34:25;101145.03;;;5.95;100.00
18504;BME280;9381;54.244;10.074;2024-03-08T19:39:26;101141.31;;;5.96;100.00
18504;BME280;9381;54.244;10.074;2024-03-08T19:44:27;101137.97;;;5.94;100.00
18504;BME280;9381;54.244;10.074;2024-03-08T19:49:28;101137.94;;;6.02;100.00
18504;BME280;9381;54.244;10.074;2024-03-08T19:54:28;101136.69;;;5.90;100.00
18504;BME280;9381;54.244;10.074;2024-03-08T19:59:29;101132.31;;;5.89;100.00
18504;BME280;9381;54.244;10.074;2024-03-08T20:04:30;101131.25;;;5.98;100.00
18504;BME280;9381;54.244;10.074;2024-03-08T20:09:31;101113.28;;;5.99;100.00
18504;BME280;9381;54.244;10.074;2024-03-08T20:14:32;101121.59;;;6.12;99.47
18504;BME280;9381;54.244;10.074;2024-03-08T20:19:35;101121.91;;;6.17;98.21
18504;BME280;9381;54.244;10.074;2024-03-08T20:24:36;101109.91;;;6.05;97.96
18504;BME280;9381;54.244;10.074;2024-03-08T20:29:38;101102.00;;;6.03;96.93
18504;BME280;9381;54.244;10.074;2024-03-08T20:34:40;101106.03;;;6.07;95.90
18504;BME280;9381;54.244;10.074;2024-03-08T20:39:41;101102.44;;;6.15;95.62
18504;BME280;9381;54.244;10.074;2024-03-08T20:44:43;101104.69;;;6.03;94.97
18504;BME280;9381;54.244;10.074;2024-03-08T20:49:43;101099.94;;;6.13;94.49
18504;BME280;9381;54.244;10.074;2024-03-08T20:54:43;101095.63;;;6.04;94.79
18504;BME280;9381;54.244;10.074;2024-03-08T20:59:44;101082.94;;;5.98;93.57
18504;BME280;9381;54.244;10.074;2024-03-08T21:04:45;101078.81;;;5.88;93.65
18504;BME280;9381;54.244;10.074;2024-03-08T21:09:48;101069.97;;;6.02;92.66
18504;BME280;9381;54.244;10.074;2024-03-08T21:14:51;101068.44;;;6.07;91.21
18504;BME280;9381;54.244;10.074;2024-03-08T21:19:52;101063.78;;;6.01;90.46
18504;BME280;9381;54.244;10.074;2024-03-08T21:24:52;101060.78;;;5.96;90.41
18504;BME280;9381;54.244;10.074;2024-03-08T21:29:53;101056.00;;;6.06;89.80
18504;BME280;9381;54.244;10.074;2024-03-08T21:34:53;101051.00;;;6.03;89.50
18504;BME280;9381;54.244;10.074;2024-03-08T21:39:55;101049.56;;;5.93;89.31
18504;BME280;9381;54.244;10.074;2024-03-08T21:44:55;101046.72;;;5.94;88.55
18504;BME280;9381;54.244;10.074;2024-03-08T21:49:57;101039.66;;;5.93;88.77
18504;BME280;9381;54.244;10.074;2024-03-08T21:55:00;101038.81;;;5.93;88.29
18504;BME280;9381;54.244;10.074;2024-03-08T22:00:01;101027.84;;;5.80;87.94
18504;BME280;9381;54.244;10.074;2024-03-08T22:05:01;101027.09;;;5.94;87.13
18504;BME280;9381;54.244;10.074;2024-03-08T22:10:05;101018.91;;;5.87;86.99
18504;BME280;9381;54.244;10.074;2024-03-08T22:15:08;101013.47;;;5.95;86.58
18504;BME280;9381;54.244;10.074;2024-03-08T22:20:13;101007.44;;;5.93;86.26
18504;BME280;9381;54.244;10.074;2024-03-08T22:25:27;101011.22;;;5.84;86.36
18504;BME280;9381;54.244;10.074;2024-03-08T22:30:27;101000.50;;;5.76;86.21
18504;BME280;9381;54.244;10.074;2024-03-08T22:35:28;100995.75;;;5.86;85.70
18504;BME280;9381;54.244;10.074;2024-03-08T22:40:28;100989.50;;;5.71;85.86
18504;BME280;9381;54.244;10.074;2024-03-08T22:45:28;100999.19;;;5.72;85.22
18504;BME280;9381;54.244;10.074;2024-03-08T22:50:29;100998.41;;;5.64;85.37
18504;BME280;9381;54.244;10.074;2024-03-08T22:55:30;100989.81;;;5.68;85.16
18504;BME280;9381;54.244;10.074;2024-03-08T23:00:30;100992.34;;;5.70;84.54
18504;BME280;9381;54.244;10.074;2024-03-08T23:05:40;100981.44;;;5.71;83.99
18504;BME280;9381;54.244;10.074;2024-03-08T23:10:43;100982.63;;;5.69;84.22
18504;BME280;9381;54.244;10.074;2024-03-08T23:15:43;100971.03;;;5.68;83.84
18504;BME280;9381;54.244;10.074;2024-03-08T23:20:43;100969.03;;;5.70;83.53
18504;BME280;9381;54.244;10.074;2024-03-08T23:25:44;100953.16;;;5.61;84.13
18504;BME280;9381;54.244;10.074;2024-03-08T23:30:45;100947.69;;;5.55;83.79
18504;BME280;9381;54.244;10.074;2024-03-08T23:35:45;100952.69;;;5.57;83.68
18504;BME280;9381;54.244;10.074;2024-03-08T23:40:46;100954.13;;;5.46;83.74
18504;BME280;9381;54.244;10.074;2024-03-08T23:45:47;100945.72;;;5.49;83.25
18504;BME280;9381;54.244;10.074;2024-03-08T23:50:48;100942.81;;;5.58;83.37
18504;BME280;9381;54.244;10.074;2024-03-08T23:55:48;100946.34;;;5.51;83.72
